메인 페이지
METAR-TAF:

METAR-TAF

공항 :

토아마시나, 마다가스카르

위도: 18-07S, 경도: 049-24E, 고도: 5m

현재 날씨관측

예보는 1 시간 5분 전, 08:00시(UTC)에 발표되었습니다.
6kt동남동풍과 남서풍을 오가는
온도 27°C
습도 66%
기압 1024 hPa
시정 10km 이상
고도 1700ft 상공 구름 보통, 타워링 적운.

METAR: FMMT 130800Z 17006KT 110V220 9999 SCT017TCU 27/20 Q1024 NOSIG

시각: 12:05 (09:05 UTC)

예보

예보는 4 시간 5분 전, 05:00시(UTC)에 발표되었습니다.
예보 대상 시간: 13일 06시부터 14일 06시까지 (UTC)
서남서7kt
시정 10km 이상
고도 700ft 상공 구름 조금
고도 1700ft 상공 구름 보통
고도 3300ft 상공 구름 많음
확률 30% :
일시적
13일 06시부터 13일 11시까지 (UTC)
시정: 4500m
소나기
전환 중
13일 07시부터 13일 09시까지 (UTC)
남남동10kt
확률 30% :
일시적
13일 14시부터 14일 06시까지 (UTC)
시정: 4500m
소나기
전환 중
13일 18시부터 13일 21시까지 (UTC)
서남서5kt

TAF: FMMT 130500Z 1306/1406 24007KT 9999 FEW007 SCT017 BKN033 PROB30 TEMPO 1306/1311 4500 SHRA BECMG 1307/1309 16010KT PROB30 TEMPO 1314/1406 4500 SHRA BECMG 1318/1321 24005KT

4,000개 이상의 공항 관측 자료 및 예보 (METAR 및 TAF 보고).

지도상에서 검색 가능한 기상관측소가 노란 점과 빨간 점으로 표시되어 있습니다.

기상관측소 명을 보려면 표시 위로 마우스를 이동하세요.

날씨 관측과 예보를 보려면 클릭하세요.

지도 변경 : 확대하려면 엑스 표시가 있는 녹색 버튼, 축소하려면 빼기 표시가 있는 녹색 버튼, 다음 페이지의 지도를 보려면 녹색 화살표를 클릭하세요.


METAR-TAF: